createdAt,value
2022-10-24T00:00:58.575Z,8.43
2022-10-24T00:06:20.756Z,5.80
2022-10-24T00:11:42.933Z,6.45
2022-10-24T00:17:04.933Z,6.78
2022-10-24T00:22:27.632Z,7.43
2022-10-24T00:27:49.294Z,10.05
2022-10-24T00:33:11.028Z,6.55
2022-10-24T00:38:32.677Z,4.07
2022-10-24T00:44:12.650Z,5.68
2022-10-24T00:49:50.780Z,7.03
2022-10-24T00:55:14.407Z,6.95
2022-10-24T01:00:36.199Z,10.02
2022-10-24T01:06:19.074Z,13.38
2022-10-24T01:11:59.262Z,7.25
2022-10-24T01:17:23.867Z,8.90
2022-10-24T01:23:06.776Z,9.57
2022-10-24T01:28:36.749Z,7.80
2022-10-24T01:34:10.303Z,9.32
2022-10-24T01:39:38.551Z,4.13
2022-10-24T01:45:02.252Z,8.70
2022-10-24T01:50:26.540Z,11.52
2022-10-24T01:55:48.896Z,6.70
2022-10-24T02:01:16.335Z,7.60
2022-10-24T02:06:41.617Z,13.20
2022-10-24T02:12:07.364Z,6.70
2022-10-24T02:23:03.408Z,4.75
2022-10-24T02:28:33.149Z,6.75
2022-10-24T02:33:56.102Z,9.70
2022-10-24T02:39:19.402Z,8.75
2022-10-24T02:44:43.865Z,7.75
2022-10-24T02:50:05.937Z,8.57
2022-10-24T02:55:27.639Z,11.38
2022-10-24T03:00:49.369Z,8.27
2022-10-24T03:06:11.657Z,7.95
2022-10-24T03:11:33.500Z,11.07
2022-10-24T03:16:55.289Z,15.60
2022-10-24T03:22:17.011Z,11.57
2022-10-24T03:27:38.998Z,10.40
2022-10-24T03:33:00.689Z,12.52
2022-10-24T03:38:23.654Z,15.18
2022-10-24T03:43:45.382Z,12.63
2022-10-24T03:49:07.130Z,18.40
2022-10-24T03:54:28.802Z,13.82
2022-10-24T03:59:50.543Z,12.43
2022-10-24T04:05:12.798Z,14.45
2022-10-24T04:10:34.528Z,14.60
2022-10-24T04:15:56.221Z,10.57
2022-10-24T04:21:21.777Z,10.75
2022-10-24T04:26:43.857Z,6.80
2022-10-24T04:32:05.587Z,12.00
2022-10-24T04:37:27.292Z,15.15
2022-10-24T04:42:49.070Z,11.98
2022-10-24T04:48:10.808Z,14.27
2022-10-24T04:53:32.512Z,12.88
2022-10-24T04:58:54.231Z,16.35
2022-10-24T05:04:16.011Z,13.20
2022-10-24T05:09:37.725Z,8.65
2022-10-24T05:14:59.383Z,11.13
2022-10-24T05:20:21.117Z,12.60
2022-10-24T05:25:42.780Z,13.88
2022-10-24T05:31:04.857Z,8.52
2022-10-24T05:36:26.510Z,9.98
2022-10-24T05:41:49.506Z,8.75
2022-10-24T05:47:12.032Z,13.05
2022-10-24T05:52:36.256Z,8.40
2022-10-24T05:57:57.952Z,10.52
2022-10-24T06:03:19.633Z,11.93
2022-10-24T06:08:41.342Z,19.80
2022-10-24T06:14:03.736Z,13.57
2022-10-24T06:19:25.517Z,11.95
2022-10-24T06:24:47.243Z,13.00
2022-10-24T06:30:10.558Z,9.93
2022-10-24T06:35:32.291Z,10.43
2022-10-24T06:40:54.029Z,11.57
2022-10-24T06:46:17.272Z,13.30
2022-10-24T06:51:39.937Z,17.15
2022-10-24T06:57:01.609Z,14.15
2022-10-24T07:02:23.365Z,15.30
2022-10-24T07:07:45.471Z,18.48
2022-10-24T07:13:07.445Z,14.38
2022-10-24T07:18:29.153Z,10.60
2022-10-24T07:23:52.125Z,9.90
2022-10-24T07:29:13.842Z,10.10
2022-10-24T07:34:35.592Z,11.60
2022-10-24T07:39:57.300Z,13.45
2022-10-24T07:45:19.042Z,11.80
2022-10-24T07:50:46.334Z,15.05
2022-10-24T07:56:11.827Z,14.65
2022-10-24T08:01:33.634Z,12.45
2022-10-24T08:06:56.582Z,14.95
2022-10-24T08:12:18.619Z,9.98
2022-10-24T08:17:40.280Z,5.65
2022-10-24T08:23:01.968Z,5.85
2022-10-24T08:28:23.953Z,13.80
2022-10-24T08:33:46.993Z,10.35
2022-10-24T08:39:08.815Z,20.92
2022-10-24T08:44:37.289Z,14.40
2022-10-24T08:50:03.607Z,7.97
2022-10-24T08:55:48.035Z,8.60
2022-10-24T09:01:44.432Z,5.57
2022-10-24T09:07:08.967Z,11.15
2022-10-24T09:12:30.689Z,9.95
2022-10-24T09:17:53.510Z,12.02
2022-10-24T09:23:17.225Z,12.10
2022-10-24T09:28:39.346Z,11.05
2022-10-24T09:34:01.251Z,18.08
2022-10-24T09:39:24.660Z,10.40
2022-10-24T09:44:46.954Z,11.18
2022-10-24T09:50:20.397Z,13.50
2022-10-24T09:55:46.655Z,11.10
2022-10-24T10:01:26.487Z,10.10
2022-10-24T10:06:50.152Z,12.35
2022-10-24T10:12:29.022Z,15.70
2022-10-24T10:17:53.161Z,9.10
2022-10-24T10:23:25.624Z,14.93
2022-10-24T10:28:58.106Z,10.10
2022-10-24T10:34:35.653Z,11.63
2022-10-24T10:40:09.683Z,10.20
2022-10-24T10:45:39.126Z,6.65
2022-10-24T10:51:23.702Z,6.00
2022-10-24T10:56:53.177Z,9.07
2022-10-24T11:02:26.910Z,6.30
2022-10-24T11:07:56.283Z,7.47
2022-10-24T11:13:23.137Z,4.75
2022-10-24T11:18:50.773Z,7.55
2022-10-24T11:24:21.423Z,6.22
2022-10-24T11:29:48.725Z,3.53
2022-10-24T11:35:19.725Z,3.58
2022-10-24T11:40:43.407Z,5.13
2022-10-24T11:46:12.797Z,6.20
2022-10-24T11:51:42.084Z,6.10
2022-10-24T11:57:20.214Z,7.45
2022-10-24T12:03:14.447Z,6.63
2022-10-24T12:08:58.893Z,4.85
2022-10-24T12:14:41.988Z,3.70
2022-10-24T12:20:11.498Z,4.25
2022-10-24T12:25:36.315Z,7.22
2022-10-24T12:31:22.291Z,5.60
2022-10-24T12:37:11.967Z,4.50
2022-10-24T12:42:36.394Z,5.65
2022-10-24T12:47:58.025Z,8.02
2022-10-24T12:53:31.977Z,5.53
2022-10-24T12:58:59.687Z,13.07
2022-10-24T13:04:58.904Z,7.10
2022-10-24T13:10:39.029Z,3.95
2022-10-24T13:16:23.376Z,4.85
2022-10-24T13:21:52.772Z,4.70
2022-10-24T13:27:24.702Z,2.50
2022-10-24T13:32:46.797Z,5.18
2022-10-24T13:38:09.917Z,4.55
2022-10-24T13:43:31.960Z,2.20
2022-10-24T13:48:54.840Z,3.35
2022-10-24T13:54:19.212Z,3.28
2022-10-24T13:59:40.870Z,2.92
2022-10-24T14:05:02.971Z,3.47
2022-10-24T14:10:26.117Z,5.30
2022-10-24T14:15:51.707Z,2.35
2022-10-24T14:21:19.142Z,1.27
2022-10-24T14:26:42.640Z,4.03
2022-10-24T14:32:10.198Z,3.30
2022-10-24T14:37:36.029Z,4.15
2022-10-24T14:42:58.569Z,2.88
2022-10-24T14:48:24.061Z,5.28
2022-10-24T14:53:48.538Z,6.10
2022-10-24T14:59:30.255Z,9.45
2022-10-24T15:04:53.481Z,5.70
2022-10-24T15:10:15.137Z,4.63
2022-10-24T15:15:57.905Z,5.95
2022-10-24T15:21:22.794Z,4.63
2022-10-24T15:26:45.622Z,6.13
2022-10-24T15:32:09.841Z,5.63
2022-10-24T15:37:31.642Z,3.25
2022-10-24T15:42:53.375Z,4.43
2022-10-24T15:48:15.160Z,2.53
2022-10-24T15:53:36.836Z,9.10
2022-10-24T15:58:58.565Z,3.78
2022-10-24T16:04:21.500Z,2.78
2022-10-24T16:09:43.283Z,2.47
2022-10-24T16:15:05.551Z,3.75
2022-10-24T16:20:27.554Z,7.43
2022-10-24T16:25:49.325Z,5.05
2022-10-24T16:31:12.009Z,4.45
2022-10-24T16:36:33.845Z,7.38
2022-10-24T16:41:55.883Z,4.10
2022-10-24T16:47:18.196Z,6.40
2022-10-24T16:52:39.876Z,5.68
2022-10-24T16:58:01.621Z,4.55
2022-10-24T17:03:23.326Z,7.35
2022-10-24T17:08:45.145Z,7.53
2022-10-24T17:19:36.325Z,6.30
2022-10-24T17:24:58.220Z,12.82
2022-10-24T17:30:23.810Z,8.98
2022-10-24T17:35:55.755Z,5.35
2022-10-24T17:41:30.996Z,5.90
2022-10-24T17:46:55.945Z,6.70
2022-10-24T17:52:23.358Z,5.40
2022-10-24T17:57:45.390Z,11.90
2022-10-24T18:03:08.485Z,7.35
2022-10-24T18:08:30.701Z,8.68
2022-10-24T18:13:52.510Z,9.35
2022-10-24T18:19:14.367Z,5.70
2022-10-24T18:24:36.639Z,5.95
2022-10-24T18:29:58.612Z,2.88
2022-10-24T18:35:22.308Z,6.68
2022-10-24T18:40:44.337Z,5.43
2022-10-24T18:46:11.453Z,3.92
2022-10-24T18:51:39.611Z,2.85
2022-10-24T18:57:01.402Z,4.78
2022-10-24T19:02:40.433Z,6.53
2022-10-24T19:08:02.273Z,2.72
2022-10-24T19:13:25.486Z,5.28
2022-10-24T19:19:05.902Z,5.97
2022-10-24T19:24:27.630Z,4.70
2022-10-24T19:29:49.308Z,3.65
2022-10-24T19:35:11.078Z,1.35
2022-10-24T19:40:33.098Z,1.38
2022-10-24T19:46:07.716Z,2.10
2022-10-24T19:51:29.875Z,5.43
2022-10-24T19:56:55.006Z,2.40
2022-10-24T20:02:16.797Z,5.15
2022-10-24T20:07:38.570Z,5.82
2022-10-24T20:13:00.477Z,4.53
2022-10-24T20:18:24.010Z,6.57
2022-10-24T20:23:47.544Z,2.63
2022-10-24T20:29:09.372Z,2.88
2022-10-24T20:34:31.141Z,5.32
2022-10-24T20:39:52.871Z,3.53
2022-10-24T20:45:17.033Z,3.92
2022-10-24T20:50:40.779Z,3.78
2022-10-24T20:56:05.165Z,3.80
2022-10-24T21:01:28.859Z,1.80
2022-10-24T21:06:50.621Z,1.60
2022-10-24T21:12:12.273Z,4.45
2022-10-24T21:17:33.998Z,3.88
2022-10-24T21:22:55.768Z,3.08
2022-10-24T21:28:17.445Z,4.30
2022-10-24T21:33:41.524Z,2.90
2022-10-24T21:39:03.318Z,5.55
2022-10-24T21:44:25.404Z,2.42
2022-10-24T21:49:47.066Z,2.88
2022-10-24T21:55:09.053Z,4.20
2022-10-24T22:00:30.726Z,2.33
2022-10-24T22:05:56.888Z,1.00
2022-10-24T22:11:21.458Z,1.35
2022-10-24T22:16:44.004Z,2.63
2022-10-24T22:22:05.709Z,2.60
2022-10-24T22:27:27.546Z,1.90
2022-10-24T22:32:49.455Z,2.78
2022-10-24T22:38:11.421Z,3.47
2022-10-24T22:43:33.532Z,4.95
2022-10-24T22:49:01.752Z,2.70
2022-10-24T22:54:25.205Z,3.10
2022-10-24T22:59:47.135Z,3.95
2022-10-24T23:05:35.877Z,3.40
2022-10-24T23:10:57.800Z,5.78
2022-10-24T23:16:30.861Z,3.75
2022-10-24T23:22:03.139Z,4.70
2022-10-24T23:27:35.332Z,5.57
2022-10-24T23:32:57.252Z,3.92
2022-10-24T23:38:19.144Z,5.40
2022-10-24T23:43:41.070Z,3.20
2022-10-24T23:49:29.862Z,5.50
2022-10-24T23:54:51.812Z,1.67
